Lynn, North Carolina
Current Conditions -  °F | °C
As of 3:15 AM on Monday 24 Nov 2014 (Local Time) from KFQD Reporting Station
Overcast Overcast  
Wind Chill: 56°   Ceiling: 600
Heat Index: 56°   Visibility: 10mi
Dew Point: 55°   Wind: 9mph
Humidity: 98%   Direction: 200°SSW
Pressure: 29.74"   Gusts: 18mph
Location:  35.23°N, 82.23°W
Report Text: KFQD 240815Z AUTO 20008G16KT 10SM BKN006 BKN019 OVC039 13/13 A2974 RMK AO2 T01330130
Loading
Personal Weather Stations






























Interactive Weather Map New forecast layout! Learn more

10-Day Weather Forecast

Advertisements
Track Severe Weather on mobile